sensor_id;sensor_type;location;lat;lon;timestamp;P1;durP1;ratioP1;P2;durP2;ratioP2
20294;SDS011;10306;52.128;5.208;2022-10-31T00:01:35;3.53;;;3.23;;
20294;SDS011;10306;52.128;5.208;2022-10-31T00:04:01;11.13;;;3.83;;
20294;SDS011;10306;52.128;5.208;2022-10-31T00:06:27;8.03;;;3.77;;
20294;SDS011;10306;52.128;5.208;2022-10-31T00:08:54;7.30;;;4.30;;
20294;SDS011;10306;52.128;5.208;2022-10-31T00:11:20;10.90;;;4.00;;
20294;SDS011;10306;52.128;5.208;2022-10-31T00:13:46;5.80;;;3.70;;
20294;SDS011;10306;52.128;5.208;2022-10-31T00:16:16;4.50;;;4.00;;
20294;SDS011;10306;52.128;5.208;2022-10-31T00:18:42;6.97;;;3.83;;
20294;SDS011;10306;52.128;5.208;2022-10-31T00:21:08;5.77;;;4.43;;
20294;SDS011;10306;52.128;5.208;2022-10-31T00:23:34;7.83;;;4.20;;
20294;SDS011;10306;52.128;5.208;2022-10-31T00:26:00;16.77;;;4.90;;
20294;SDS011;10306;52.128;5.208;2022-10-31T00:28:27;4.43;;;4.03;;
20294;SDS011;10306;52.128;5.208;2022-10-31T00:30:57;11.20;;;3.83;;
20294;SDS011;10306;52.128;5.208;2022-10-31T00:33:23;4.57;;;4.10;;
20294;SDS011;10306;52.128;5.208;2022-10-31T00:35:50;4.97;;;3.93;;
20294;SDS011;10306;52.128;5.208;2022-10-31T00:38:16;9.43;;;4.83;;
20294;SDS011;10306;52.128;5.208;2022-10-31T00:40:42;7.70;;;5.20;;
20294;SDS011;10306;52.128;5.208;2022-10-31T00:43:08;5.37;;;4.87;;
20294;SDS011;10306;52.128;5.208;2022-10-31T00:45:33;4.63;;;3.83;;
20294;SDS011;10306;52.128;5.208;2022-10-31T00:47:59;12.10;;;5.77;;
20294;SDS011;10306;52.128;5.208;2022-10-31T00:50:25;10.10;;;4.80;;
20294;SDS011;10306;52.128;5.208;2022-10-31T00:52:51;8.73;;;4.20;;
20294;SDS011;10306;52.128;5.208;2022-10-31T00:55:17;9.50;;;4.43;;
20294;SDS011;10306;52.128;5.208;2022-10-31T00:57:45;4.33;;;3.77;;
20294;SDS011;10306;52.128;5.208;2022-10-31T01:00:12;10.83;;;4.43;;
20294;SDS011;10306;52.128;5.208;2022-10-31T01:02:38;5.53;;;4.63;;
20294;SDS011;10306;52.128;5.208;2022-10-31T01:05:04;5.10;;;4.33;;
20294;SDS011;10306;52.128;5.208;2022-10-31T01:07:30;9.43;;;4.73;;
20294;SDS011;10306;52.128;5.208;2022-10-31T01:09:56;7.20;;;5.27;;
20294;SDS011;10306;52.128;5.208;2022-10-31T01:12:22;5.60;;;4.73;;
20294;SDS011;10306;52.128;5.208;2022-10-31T01:14:48;8.43;;;5.20;;
20294;SDS011;10306;52.128;5.208;2022-10-31T01:17:14;14.30;;;5.23;;
20294;SDS011;10306;52.128;5.208;2022-10-31T01:19:40;8.97;;;5.07;;
20294;SDS011;10306;52.128;5.208;2022-10-31T01:22:06;5.37;;;4.93;;
20294;SDS011;10306;52.128;5.208;2022-10-31T01:24:32;7.77;;;5.50;;
20294;SDS011;10306;52.128;5.208;2022-10-31T01:26:58;6.30;;;5.70;;
20294;SDS011;10306;52.128;5.208;2022-10-31T01:29:24;8.23;;;5.20;;
20294;SDS011;10306;52.128;5.208;2022-10-31T01:31:50;10.23;;;5.00;;
20294;SDS011;10306;52.128;5.208;2022-10-31T01:34:16;6.27;;;5.77;;
20294;SDS011;10306;52.128;5.208;2022-10-31T01:36:43;7.03;;;6.20;;
20294;SDS011;10306;52.128;5.208;2022-10-31T01:39:14;6.30;;;5.80;;
20294;SDS011;10306;52.128;5.208;2022-10-31T01:41:41;7.37;;;5.83;;
20294;SDS011;10306;52.128;5.208;2022-10-31T01:44:54;10.83;;;5.97;;
20294;SDS011;10306;52.128;5.208;2022-10-31T01:49:37;9.07;;;5.87;;
20294;SDS011;10306;52.128;5.208;2022-10-31T01:52:04;7.53;;;5.73;;
20294;SDS011;10306;52.128;5.208;2022-10-31T01:54:35;8.70;;;6.37;;
20294;SDS011;10306;52.128;5.208;2022-10-31T01:57:03;6.30;;;5.80;;
20294;SDS011;10306;52.128;5.208;2022-10-31T01:59:30;12.53;;;7.07;;
20294;SDS011;10306;52.128;5.208;2022-10-31T02:01:59;7.13;;;6.03;;
20294;SDS011;10306;52.128;5.208;2022-10-31T02:04:25;11.33;;;6.40;;
20294;SDS011;10306;52.128;5.208;2022-10-31T02:06:58;6.87;;;6.17;;
20294;SDS011;10306;52.128;5.208;2022-10-31T02:09:26;11.43;;;6.73;;
20294;SDS011;10306;52.128;5.208;2022-10-31T02:11:52;10.67;;;6.30;;
20294;SDS011;10306;52.128;5.208;2022-10-31T02:14:21;10.00;;;6.33;;
20294;SDS011;10306;52.128;5.208;2022-10-31T02:16:47;7.77;;;6.77;;
20294;SDS011;10306;52.128;5.208;2022-10-31T02:19:14;7.73;;;6.43;;
20294;SDS011;10306;52.128;5.208;2022-10-31T02:21:46;8.17;;;6.70;;
20294;SDS011;10306;52.128;5.208;2022-10-31T02:26:54;5.87;;;5.47;;
20294;SDS011;10306;52.128;5.208;2022-10-31T02:34:38;10.03;;;6.73;;
20294;SDS011;10306;52.128;5.208;2022-10-31T02:37:09;9.27;;;6.70;;
20294;SDS011;10306;52.128;5.208;2022-10-31T02:39:37;7.00;;;6.30;;
20294;SDS011;10306;52.128;5.208;2022-10-31T02:42:51;8.60;;;6.23;;
20294;SDS011;10306;52.128;5.208;2022-10-31T02:44:53;9.13;;;6.50;;
20294;SDS011;10306;52.128;5.208;2022-10-31T02:47:28;14.23;;;7.80;;
20294;SDS011;10306;52.128;5.208;2022-10-31T02:49:56;8.00;;;6.57;;
20294;SDS011;10306;52.128;5.208;2022-10-31T02:52:24;8.83;;;7.07;;
20294;SDS011;10306;52.128;5.208;2022-10-31T02:54:51;8.23;;;7.37;;
20294;SDS011;10306;52.128;5.208;2022-10-31T02:57:18;10.53;;;7.50;;
20294;SDS011;10306;52.128;5.208;2022-10-31T02:59:47;13.27;;;7.10;;
20294;SDS011;10306;52.128;5.208;2022-10-31T03:05:04;8.50;;;7.13;;
20294;SDS011;10306;52.128;5.208;2022-10-31T03:10:10;9.37;;;7.83;;
20294;SDS011;10306;52.128;5.208;2022-10-31T03:12:40;10.83;;;7.33;;
20294;SDS011;10306;52.128;5.208;2022-10-31T03:17:50;9.33;;;7.83;;
20294;SDS011;10306;52.128;5.208;2022-10-31T03:20:20;12.80;;;7.93;;
20294;SDS011;10306;52.128;5.208;2022-10-31T03:22:47;9.07;;;7.43;;
20294;SDS011;10306;52.128;5.208;2022-10-31T03:25:13;11.73;;;7.73;;
20294;SDS011;10306;52.128;5.208;2022-10-31T03:27:39;9.40;;;7.77;;
20294;SDS011;10306;52.128;5.208;2022-10-31T03:30:06;12.53;;;8.20;;
20294;SDS011;10306;52.128;5.208;2022-10-31T03:32:47;10.73;;;7.60;;
20294;SDS011;10306;52.128;5.208;2022-10-31T03:35:15;8.10;;;7.30;;
20294;SDS011;10306;52.128;5.208;2022-10-31T03:37:42;9.90;;;7.97;;
20294;SDS011;10306;52.128;5.208;2022-10-31T03:40:08;12.00;;;8.70;;
20294;SDS011;10306;52.128;5.208;2022-10-31T03:42:37;10.13;;;9.07;;
20294;SDS011;10306;52.128;5.208;2022-10-31T03:45:15;9.93;;;8.33;;
20294;SDS011;10306;52.128;5.208;2022-10-31T03:47:42;9.83;;;8.77;;
20294;SDS011;10306;52.128;5.208;2022-10-31T03:50:09;17.17;;;8.50;;
20294;SDS011;10306;52.128;5.208;2022-10-31T03:52:46;15.37;;;9.13;;
20294;SDS011;10306;52.128;5.208;2022-10-31T04:00:27;10.97;;;8.17;;
20294;SDS011;10306;52.128;5.208;2022-10-31T04:05:22;11.27;;;8.40;;
20294;SDS011;10306;52.128;5.208;2022-10-31T04:07:49;10.60;;;8.80;;
20294;SDS011;10306;52.128;5.208;2022-10-31T04:10:16;10.83;;;8.40;;
20294;SDS011;10306;52.128;5.208;2022-10-31T04:12:43;9.83;;;8.83;;
20294;SDS011;10306;52.128;5.208;2022-10-31T04:15:10;11.23;;;8.87;;
20294;SDS011;10306;52.128;5.208;2022-10-31T04:17:38;9.13;;;7.73;;
20294;SDS011;10306;52.128;5.208;2022-10-31T04:20:05;11.70;;;9.03;;
20294;SDS011;10306;52.128;5.208;2022-10-31T04:22:31;12.47;;;8.90;;
20294;SDS011;10306;52.128;5.208;2022-10-31T04:24:57;14.67;;;8.60;;
20294;SDS011;10306;52.128;5.208;2022-10-31T04:27:23;9.47;;;8.13;;
20294;SDS011;10306;52.128;5.208;2022-10-31T04:29:49;17.10;;;9.63;;
20294;SDS011;10306;52.128;5.208;2022-10-31T04:32:15;11.60;;;8.67;;
20294;SDS011;10306;52.128;5.208;2022-10-31T04:34:41;13.33;;;10.30;;
20294;SDS011;10306;52.128;5.208;2022-10-31T04:37:07;12.30;;;9.60;;
20294;SDS011;10306;52.128;5.208;2022-10-31T04:39:32;14.17;;;9.70;;
20294;SDS011;10306;52.128;5.208;2022-10-31T04:41:58;12.30;;;9.50;;
20294;SDS011;10306;52.128;5.208;2022-10-31T04:44:24;12.30;;;9.67;;
20294;SDS011;10306;52.128;5.208;2022-10-31T04:46:50;12.00;;;9.60;;
20294;SDS011;10306;52.128;5.208;2022-10-31T04:49:16;11.57;;;9.67;;
20294;SDS011;10306;52.128;5.208;2022-10-31T04:51:42;11.73;;;8.90;;
20294;SDS011;10306;52.128;5.208;2022-10-31T04:54:08;16.40;;;9.93;;
20294;SDS011;10306;52.128;5.208;2022-10-31T04:56:34;14.60;;;9.17;;
20294;SDS011;10306;52.128;5.208;2022-10-31T04:59:00;10.13;;;9.00;;
20294;SDS011;10306;52.128;5.208;2022-10-31T05:01:26;14.33;;;9.57;;
20294;SDS011;10306;52.128;5.208;2022-10-31T05:03:52;13.47;;;9.20;;
20294;SDS011;10306;52.128;5.208;2022-10-31T05:06:18;19.07;;;10.07;;
20294;SDS011;10306;52.128;5.208;2022-10-31T05:08:44;14.30;;;8.93;;
20294;SDS011;10306;52.128;5.208;2022-10-31T05:11:10;14.33;;;9.00;;
20294;SDS011;10306;52.128;5.208;2022-10-31T05:13:36;11.53;;;9.27;;
20294;SDS011;10306;52.128;5.208;2022-10-31T05:16:02;9.77;;;8.77;;
20294;SDS011;10306;52.128;5.208;2022-10-31T05:18:28;13.07;;;9.07;;
20294;SDS011;10306;52.128;5.208;2022-10-31T05:20:54;10.40;;;8.93;;
20294;SDS011;10306;52.128;5.208;2022-10-31T05:23:20;12.73;;;8.87;;
20294;SDS011;10306;52.128;5.208;2022-10-31T05:25:46;11.97;;;9.87;;
20294;SDS011;10306;52.128;5.208;2022-10-31T05:28:12;10.87;;;8.30;;
20294;SDS011;10306;52.128;5.208;2022-10-31T05:30:38;9.53;;;8.60;;
20294;SDS011;10306;52.128;5.208;2022-10-31T05:33:04;10.67;;;8.77;;
20294;SDS011;10306;52.128;5.208;2022-10-31T05:35:31;10.77;;;7.97;;
20294;SDS011;10306;52.128;5.208;2022-10-31T05:37:57;10.57;;;8.63;;
20294;SDS011;10306;52.128;5.208;2022-10-31T05:40:23;16.83;;;9.27;;
20294;SDS011;10306;52.128;5.208;2022-10-31T05:42:50;15.93;;;8.03;;
20294;SDS011;10306;52.128;5.208;2022-10-31T05:45:17;13.20;;;8.97;;
20294;SDS011;10306;52.128;5.208;2022-10-31T05:47:53;10.20;;;8.10;;
20294;SDS011;10306;52.128;5.208;2022-10-31T05:50:20;13.23;;;8.73;;
20294;SDS011;10306;52.128;5.208;2022-10-31T05:52:46;10.60;;;8.00;;
20294;SDS011;10306;52.128;5.208;2022-10-31T05:55:12;7.93;;;7.10;;
20294;SDS011;10306;52.128;5.208;2022-10-31T05:57:38;10.30;;;7.63;;
20294;SDS011;10306;52.128;5.208;2022-10-31T06:00:05;10.00;;;8.27;;
20294;SDS011;10306;52.128;5.208;2022-10-31T06:02:31;11.73;;;7.73;;
20294;SDS011;10306;52.128;5.208;2022-10-31T06:04:59;11.90;;;8.10;;
20294;SDS011;10306;52.128;5.208;2022-10-31T06:07:25;9.00;;;8.10;;
20294;SDS011;10306;52.128;5.208;2022-10-31T06:09:51;11.00;;;8.40;;
20294;SDS011;10306;52.128;5.208;2022-10-31T06:12:17;9.20;;;8.27;;
20294;SDS011;10306;52.128;5.208;2022-10-31T06:14:43;13.83;;;8.17;;
20294;SDS011;10306;52.128;5.208;2022-10-31T06:17:09;14.00;;;8.80;;
20294;SDS011;10306;52.128;5.208;2022-10-31T06:19:35;10.33;;;8.20;;
20294;SDS011;10306;52.128;5.208;2022-10-31T06:22:01;10.30;;;8.40;;
20294;SDS011;10306;52.128;5.208;2022-10-31T06:24:27;10.97;;;8.30;;
20294;SDS011;10306;52.128;5.208;2022-10-31T06:26:52;12.40;;;8.43;;
20294;SDS011;10306;52.128;5.208;2022-10-31T06:29:18;13.90;;;8.37;;
20294;SDS011;10306;52.128;5.208;2022-10-31T06:31:44;14.77;;;10.10;;
20294;SDS011;10306;52.128;5.208;2022-10-31T06:34:10;12.30;;;9.83;;
20294;SDS011;10306;52.128;5.208;2022-10-31T06:36:36;13.43;;;9.33;;
20294;SDS011;10306;52.128;5.208;2022-10-31T06:39:03;12.20;;;8.93;;
20294;SDS011;10306;52.128;5.208;2022-10-31T06:41:29;12.90;;;9.67;;
20294;SDS011;10306;52.128;5.208;2022-10-31T06:43:55;13.77;;;9.77;;
20294;SDS011;10306;52.128;5.208;2022-10-31T06:46:21;14.67;;;9.33;;
20294;SDS011;10306;52.128;5.208;2022-10-31T06:48:47;10.60;;;8.50;;
20294;SDS011;10306;52.128;5.208;2022-10-31T06:51:13;13.80;;;9.40;;
20294;SDS011;10306;52.128;5.208;2022-10-31T06:53:39;13.47;;;9.40;;
20294;SDS011;10306;52.128;5.208;2022-10-31T06:56:05;11.47;;;8.83;;
20294;SDS011;10306;52.128;5.208;2022-10-31T06:58:31;10.37;;;8.50;;
20294;SDS011;10306;52.128;5.208;2022-10-31T07:00:59;12.17;;;8.77;;
20294;SDS011;10306;52.128;5.208;2022-10-31T07:03:26;13.70;;;8.33;;
20294;SDS011;10306;52.128;5.208;2022-10-31T07:05:52;12.87;;;9.13;;
20294;SDS011;10306;52.128;5.208;2022-10-31T07:08:20;12.20;;;9.23;;
20294;SDS011;10306;52.128;5.208;2022-10-31T07:10:50;12.67;;;8.40;;
20294;SDS011;10306;52.128;5.208;2022-10-31T07:13:17;14.80;;;9.13;;
20294;SDS011;10306;52.128;5.208;2022-10-31T07:15:43;13.87;;;9.43;;
20294;SDS011;10306;52.128;5.208;2022-10-31T07:18:09;16.37;;;10.60;;
20294;SDS011;10306;52.128;5.208;2022-10-31T07:20:35;12.60;;;10.10;;
20294;SDS011;10306;52.128;5.208;2022-10-31T07:23:01;16.40;;;10.67;;
20294;SDS011;10306;52.128;5.208;2022-10-31T07:25:28;18.23;;;10.73;;
20294;SDS011;10306;52.128;5.208;2022-10-31T07:27:54;19.47;;;11.93;;
20294;SDS011;10306;52.128;5.208;2022-10-31T07:30:19;19.30;;;12.33;;
20294;SDS011;10306;52.128;5.208;2022-10-31T07:32:46;23.27;;;12.00;;
20294;SDS011;10306;52.128;5.208;2022-10-31T07:35:16;25.03;;;13.87;;
20294;SDS011;10306;52.128;5.208;2022-10-31T07:37:42;19.37;;;12.90;;
20294;SDS011;10306;52.128;5.208;2022-10-31T07:40:08;21.83;;;14.43;;
20294;SDS011;10306;52.128;5.208;2022-10-31T07:42:38;22.03;;;14.50;;
20294;SDS011;10306;52.128;5.208;2022-10-31T07:45:05;21.27;;;13.13;;
20294;SDS011;10306;52.128;5.208;2022-10-31T07:47:38;19.87;;;13.47;;
20294;SDS011;10306;52.128;5.208;2022-10-31T07:50:04;21.40;;;13.40;;
20294;SDS011;10306;52.128;5.208;2022-10-31T07:52:30;20.67;;;13.33;;
20294;SDS011;10306;52.128;5.208;2022-10-31T07:54:56;18.93;;;12.90;;
20294;SDS011;10306;52.128;5.208;2022-10-31T07:57:22;18.87;;;13.77;;
20294;SDS011;10306;52.128;5.208;2022-10-31T07:59:48;19.03;;;13.13;;
20294;SDS011;10306;52.128;5.208;2022-10-31T08:02:14;18.00;;;12.30;;
20294;SDS011;10306;52.128;5.208;2022-10-31T08:04:40;18.00;;;12.77;;
20294;SDS011;10306;52.128;5.208;2022-10-31T08:07:06;19.00;;;14.13;;
20294;SDS011;10306;52.128;5.208;2022-10-31T08:09:32;22.27;;;14.27;;
20294;SDS011;10306;52.128;5.208;2022-10-31T08:11:58;20.60;;;12.97;;
20294;SDS011;10306;52.128;5.208;2022-10-31T08:14:24;24.40;;;14.57;;
20294;SDS011;10306;52.128;5.208;2022-10-31T08:16:50;25.73;;;15.20;;
20294;SDS011;10306;52.128;5.208;2022-10-31T08:19:16;21.73;;;14.80;;
20294;SDS011;10306;52.128;5.208;2022-10-31T08:21:42;24.60;;;15.83;;
20294;SDS011;10306;52.128;5.208;2022-10-31T08:24:07;24.97;;;15.50;;
20294;SDS011;10306;52.128;5.208;2022-10-31T08:26:34;23.23;;;15.80;;
20294;SDS011;10306;52.128;5.208;2022-10-31T08:29:00;26.17;;;15.90;;
20294;SDS011;10306;52.128;5.208;2022-10-31T08:31:27;25.30;;;16.97;;
20294;SDS011;10306;52.128;5.208;2022-10-31T08:33:53;27.83;;;16.43;;
20294;SDS011;10306;52.128;5.208;2022-10-31T08:36:19;28.83;;;17.10;;
20294;SDS011;10306;52.128;5.208;2022-10-31T08:38:46;30.90;;;16.40;;
20294;SDS011;10306;52.128;5.208;2022-10-31T08:41:12;30.53;;;16.87;;
20294;SDS011;10306;52.128;5.208;2022-10-31T08:43:38;28.63;;;17.47;;
20294;SDS011;10306;52.128;5.208;2022-10-31T08:46:04;23.40;;;16.33;;
20294;SDS011;10306;52.128;5.208;2022-10-31T08:48:30;25.37;;;16.10;;
20294;SDS011;10306;52.128;5.208;2022-10-31T08:50:57;24.03;;;16.27;;
20294;SDS011;10306;52.128;5.208;2022-10-31T08:53:23;27.93;;;16.37;;
20294;SDS011;10306;52.128;5.208;2022-10-31T08:55:49;27.27;;;16.67;;
20294;SDS011;10306;52.128;5.208;2022-10-31T08:58:17;27.70;;;17.07;;
20294;SDS011;10306;52.128;5.208;2022-10-31T09:00:43;31.23;;;18.27;;
20294;SDS011;10306;52.128;5.208;2022-10-31T09:03:11;25.97;;;15.97;;
20294;SDS011;10306;52.128;5.208;2022-10-31T09:05:37;29.97;;;18.07;;
20294;SDS011;10306;52.128;5.208;2022-10-31T09:08:04;29.20;;;18.17;;
20294;SDS011;10306;52.128;5.208;2022-10-31T09:10:31;29.50;;;17.77;;
20294;SDS011;10306;52.128;5.208;2022-10-31T09:13:01;30.17;;;19.00;;
20294;SDS011;10306;52.128;5.208;2022-10-31T09:15:31;30.30;;;19.37;;
20294;SDS011;10306;52.128;5.208;2022-10-31T09:17:57;29.70;;;19.57;;
20294;SDS011;10306;52.128;5.208;2022-10-31T09:20:23;30.47;;;19.30;;
20294;SDS011;10306;52.128;5.208;2022-10-31T09:22:55;36.03;;;19.83;;
20294;SDS011;10306;52.128;5.208;2022-10-31T09:25:21;30.90;;;19.23;;
20294;SDS011;10306;52.128;5.208;2022-10-31T09:27:47;30.80;;;19.40;;
20294;SDS011;10306;52.128;5.208;2022-10-31T09:30:13;29.73;;;19.37;;
20294;SDS011;10306;52.128;5.208;2022-10-31T09:32:39;33.13;;;20.07;;
20294;SDS011;10306;52.128;5.208;2022-10-31T09:35:05;29.70;;;19.53;;
20294;SDS011;10306;52.128;5.208;2022-10-31T09:37:31;31.63;;;19.43;;
20294;SDS011;10306;52.128;5.208;2022-10-31T09:39:57;35.53;;;19.07;;
20294;SDS011;10306;52.128;5.208;2022-10-31T09:42:26;29.43;;;18.67;;
20294;SDS011;10306;52.128;5.208;2022-10-31T09:47:40;29.83;;;18.63;;
20294;SDS011;10306;52.128;5.208;2022-10-31T09:50:19;30.47;;;18.67;;
20294;SDS011;10306;52.128;5.208;2022-10-31T09:52:51;25.87;;;17.37;;
20294;SDS011;10306;52.128;5.208;2022-10-31T09:58:24;25.30;;;16.70;;
20294;SDS011;10306;52.128;5.208;2022-10-31T10:00:51;30.37;;;17.30;;
20294;SDS011;10306;52.128;5.208;2022-10-31T10:03:33;25.30;;;16.97;;
20294;SDS011;10306;52.128;5.208;2022-10-31T10:06:03;23.53;;;17.97;;
20294;SDS011;10306;52.128;5.208;2022-10-31T10:08:31;23.47;;;16.53;;
20294;SDS011;10306;52.128;5.208;2022-10-31T10:11:01;23.83;;;15.47;;
20294;SDS011;10306;52.128;5.208;2022-10-31T10:21:26;22.60;;;14.50;;
20294;SDS011;10306;52.128;5.208;2022-10-31T10:26:30;18.70;;;13.10;;
20294;SDS011;10306;52.128;5.208;2022-10-31T10:29:44;15.57;;;12.93;;
20294;SDS011;10306;52.128;5.208;2022-10-31T10:31:49;15.67;;;12.47;;
20294;SDS011;10306;52.128;5.208;2022-10-31T10:34:19;18.27;;;11.80;;
20294;SDS011;10306;52.128;5.208;2022-10-31T10:39:14;14.37;;;11.40;;
20294;SDS011;10306;52.128;5.208;2022-10-31T10:41:43;14.10;;;10.37;;
20294;SDS011;10306;52.128;5.208;2022-10-31T10:44:10;13.40;;;11.33;;
20294;SDS011;10306;52.128;5.208;2022-10-31T10:46:43;11.67;;;10.30;;
20294;SDS011;10306;52.128;5.208;2022-10-31T10:49:31;13.23;;;10.47;;
20294;SDS011;10306;52.128;5.208;2022-10-31T10:52:07;14.27;;;9.40;;
20294;SDS011;10306;52.128;5.208;2022-10-31T10:54:41;12.73;;;10.03;;
20294;SDS011;10306;52.128;5.208;2022-10-31T10:59:53;9.77;;;8.80;;
20294;SDS011;10306;52.128;5.208;2022-10-31T11:02:23;12.10;;;9.07;;
20294;SDS011;10306;52.128;5.208;2022-10-31T11:04:57;11.67;;;10.40;;
20294;SDS011;10306;52.128;5.208;2022-10-31T11:07:23;11.23;;;9.43;;
20294;SDS011;10306;52.128;5.208;2022-10-31T11:09:49;9.73;;;8.77;;
20294;SDS011;10306;52.128;5.208;2022-10-31T11:12:22;13.23;;;9.57;;
20294;SDS011;10306;52.128;5.208;2022-10-31T11:14:52;11.03;;;9.67;;
20294;SDS011;10306;52.128;5.208;2022-10-31T11:17:24;12.13;;;9.77;;
20294;SDS011;10306;52.128;5.208;2022-10-31T11:20:01;14.17;;;9.60;;
20294;SDS011;10306;52.128;5.208;2022-10-31T11:22:28;13.83;;;10.17;;
20294;SDS011;10306;52.128;5.208;2022-10-31T11:24:54;11.70;;;10.20;;
20294;SDS011;10306;52.128;5.208;2022-10-31T11:27:20;12.80;;;9.70;;
20294;SDS011;10306;52.128;5.208;2022-10-31T11:29:47;16.77;;;10.27;;
20294;SDS011;10306;52.128;5.208;2022-10-31T11:32:23;13.07;;;10.20;;
20294;SDS011;10306;52.128;5.208;2022-10-31T11:34:51;19.20;;;11.73;;
20294;SDS011;10306;52.128;5.208;2022-10-31T11:37:20;15.03;;;11.07;;
20294;SDS011;10306;52.128;5.208;2022-10-31T11:39:48;16.00;;;10.73;;
20294;SDS011;10306;52.128;5.208;2022-10-31T11:42:19;16.67;;;11.40;;
20294;SDS011;10306;52.128;5.208;2022-10-31T11:44:45;16.20;;;11.47;;
20294;SDS011;10306;52.128;5.208;2022-10-31T11:47:13;17.90;;;12.03;;
20294;SDS011;10306;52.128;5.208;2022-10-31T11:49:41;20.23;;;12.23;;
20294;SDS011;10306;52.128;5.208;2022-10-31T11:54:58;17.97;;;12.60;;
20294;SDS011;10306;52.128;5.208;2022-10-31T11:57:29;22.67;;;13.30;;
20294;SDS011;10306;52.128;5.208;2022-10-31T11:59:57;26.30;;;13.10;;
20294;SDS011;10306;52.128;5.208;2022-10-31T12:02:23;20.50;;;12.97;;
20294;SDS011;10306;52.128;5.208;2022-10-31T12:07:22;21.40;;;13.60;;
20294;SDS011;10306;52.128;5.208;2022-10-31T12:09:48;18.07;;;12.53;;
20294;SDS011;10306;52.128;5.208;2022-10-31T12:14:47;20.47;;;12.53;;
20294;SDS011;10306;52.128;5.208;2022-10-31T12:17:15;21.60;;;12.97;;
20294;SDS011;10306;52.128;5.208;2022-10-31T12:25:00;18.17;;;12.60;;
20294;SDS011;10306;52.128;5.208;2022-10-31T12:30:15;23.67;;;14.20;;
20294;SDS011;10306;52.128;5.208;2022-10-31T12:35:30;20.37;;;13.43;;
20294;SDS011;10306;52.128;5.208;2022-10-31T12:38:15;23.30;;;13.60;;
20294;SDS011;10306;52.128;5.208;2022-10-31T12:40:51;23.17;;;14.23;;
20294;SDS011;10306;52.128;5.208;2022-10-31T12:53:40;25.00;;;14.40;;
20294;SDS011;10306;52.128;5.208;2022-10-31T12:58:37;23.53;;;13.73;;
20294;SDS011;10306;52.128;5.208;2022-10-31T13:06:19;19.77;;;13.50;;
20294;SDS011;10306;52.128;5.208;2022-10-31T13:08:57;19.50;;;13.10;;
20294;SDS011;10306;52.128;5.208;2022-10-31T13:11:26;25.60;;;14.07;;
20294;SDS011;10306;52.128;5.208;2022-10-31T13:16:21;20.37;;;13.60;;
20294;SDS011;10306;52.128;5.208;2022-10-31T13:18:49;23.43;;;14.53;;
20294;SDS011;10306;52.128;5.208;2022-10-31T13:21:21;26.03;;;14.40;;
20294;SDS011;10306;52.128;5.208;2022-10-31T13:23:49;25.77;;;14.23;;
20294;SDS011;10306;52.128;5.208;2022-10-31T13:26:19;25.53;;;15.30;;
20294;SDS011;10306;52.128;5.208;2022-10-31T13:28:48;23.57;;;14.77;;
20294;SDS011;10306;52.128;5.208;2022-10-31T13:31:15;25.07;;;15.67;;
20294;SDS011;10306;52.128;5.208;2022-10-31T13:33:51;23.57;;;15.67;;
20294;SDS011;10306;52.128;5.208;2022-10-31T13:38:52;20.97;;;14.30;;
20294;SDS011;10306;52.128;5.208;2022-10-31T13:41:25;25.27;;;15.10;;
20294;SDS011;10306;52.128;5.208;2022-10-31T13:43:59;27.10;;;16.33;;
20294;SDS011;10306;52.128;5.208;2022-10-31T13:48:58;27.60;;;15.47;;
20294;SDS011;10306;52.128;5.208;2022-10-31T13:51:25;31.33;;;15.97;;
20294;SDS011;10306;52.128;5.208;2022-10-31T13:56:31;26.73;;;15.07;;
20294;SDS011;10306;52.128;5.208;2022-10-31T13:59:00;24.97;;;15.33;;
20294;SDS011;10306;52.128;5.208;2022-10-31T14:01:26;24.13;;;15.20;;
20294;SDS011;10306;52.128;5.208;2022-10-31T14:04:14;22.50;;;15.27;;
20294;SDS011;10306;52.128;5.208;2022-10-31T14:06:51;25.63;;;15.33;;
20294;SDS011;10306;52.128;5.208;2022-10-31T14:09:19;25.00;;;16.00;;
20294;SDS011;10306;52.128;5.208;2022-10-31T14:11:46;24.47;;;15.63;;
20294;SDS011;10306;52.128;5.208;2022-10-31T14:14:13;24.37;;;15.67;;
20294;SDS011;10306;52.128;5.208;2022-10-31T14:16:40;28.90;;;16.40;;
20294;SDS011;10306;52.128;5.208;2022-10-31T14:19:07;32.07;;;16.47;;
20294;SDS011;10306;52.128;5.208;2022-10-31T14:21:44;29.60;;;15.37;;
20294;SDS011;10306;52.128;5.208;2022-10-31T14:24:14;27.47;;;14.93;;
20294;SDS011;10306;52.128;5.208;2022-10-31T14:26:50;23.97;;;14.73;;
20294;SDS011;10306;52.128;5.208;2022-10-31T14:31:43;21.73;;;14.03;;
20294;SDS011;10306;52.128;5.208;2022-10-31T14:37:02;26.53;;;14.37;;
20294;SDS011;10306;52.128;5.208;2022-10-31T14:39:31;20.37;;;13.87;;
20294;SDS011;10306;52.128;5.208;2022-10-31T14:42:13;20.50;;;14.17;;
20294;SDS011;10306;52.128;5.208;2022-10-31T14:44:48;29.37;;;14.57;;
20294;SDS011;10306;52.128;5.208;2022-10-31T14:52:35;29.17;;;14.50;;
20294;SDS011;10306;52.128;5.208;2022-10-31T14:55:01;24.87;;;13.60;;
20294;SDS011;10306;52.128;5.208;2022-10-31T14:57:32;23.33;;;14.23;;
20294;SDS011;10306;52.128;5.208;2022-10-31T15:00:06;25.40;;;13.43;;
20294;SDS011;10306;52.128;5.208;2022-10-31T15:05:11;19.70;;;13.40;;
20294;SDS011;10306;52.128;5.208;2022-10-31T15:07:47;25.93;;;14.07;;
20294;SDS011;10306;52.128;5.208;2022-10-31T15:10:27;24.27;;;14.10;;
20294;SDS011;10306;52.128;5.208;2022-10-31T15:12:54;23.93;;;13.80;;
20294;SDS011;10306;52.128;5.208;2022-10-31T15:18:21;30.33;;;13.83;;
20294;SDS011;10306;52.128;5.208;2022-10-31T15:20:42;26.77;;;13.83;;
20294;SDS011;10306;52.128;5.208;2022-10-31T15:23:09;22.43;;;13.77;;
20294;SDS011;10306;52.128;5.208;2022-10-31T15:25:36;24.20;;;15.47;;
20294;SDS011;10306;52.128;5.208;2022-10-31T15:28:11;23.97;;;14.23;;
20294;SDS011;10306;52.128;5.208;2022-10-31T15:30:38;26.73;;;14.73;;
20294;SDS011;10306;52.128;5.208;2022-10-31T15:33:15;26.10;;;14.43;;
20294;SDS011;10306;52.128;5.208;2022-10-31T15:35:53;25.50;;;14.50;;
20294;SDS011;10306;52.128;5.208;2022-10-31T15:38:20;24.20;;;14.70;;
20294;SDS011;10306;52.128;5.208;2022-10-31T15:43:39;25.37;;;14.37;;
20294;SDS011;10306;52.128;5.208;2022-10-31T15:46:07;21.60;;;13.87;;
20294;SDS011;10306;52.128;5.208;2022-10-31T15:48:33;26.70;;;15.23;;
20294;SDS011;10306;52.128;5.208;2022-10-31T15:51:00;25.57;;;15.43;;
20294;SDS011;10306;52.128;5.208;2022-10-31T15:53:36;24.73;;;15.57;;
20294;SDS011;10306;52.128;5.208;2022-10-31T15:56:07;29.67;;;15.60;;
20294;SDS011;10306;52.128;5.208;2022-10-31T15:58:39;23.87;;;14.87;;
20294;SDS011;10306;52.128;5.208;2022-10-31T16:01:19;26.50;;;14.67;;
20294;SDS011;10306;52.128;5.208;2022-10-31T16:03:55;25.03;;;14.47;;
20294;SDS011;10306;52.128;5.208;2022-10-31T16:06:22;24.13;;;14.73;;
20294;SDS011;10306;52.128;5.208;2022-10-31T16:08:48;26.53;;;14.67;;
20294;SDS011;10306;52.128;5.208;2022-10-31T16:16:18;23.03;;;14.47;;
20294;SDS011;10306;52.128;5.208;2022-10-31T16:18:48;23.50;;;13.97;;
20294;SDS011;10306;52.128;5.208;2022-10-31T16:21:14;29.40;;;14.53;;
20294;SDS011;10306;52.128;5.208;2022-10-31T16:23:44;27.27;;;14.83;;
20294;SDS011;10306;52.128;5.208;2022-10-31T16:26:13;25.70;;;13.70;;
20294;SDS011;10306;52.128;5.208;2022-10-31T16:28:50;27.90;;;14.40;;
20294;SDS011;10306;52.128;5.208;2022-10-31T16:31:25;24.63;;;13.77;;
20294;SDS011;10306;52.128;5.208;2022-10-31T16:34:01;28.20;;;14.20;;
20294;SDS011;10306;52.128;5.208;2022-10-31T16:38:53;27.37;;;14.97;;